FW0517 Weather Reports


Display with metric or nautical units.
time (UTC)temp
F
wind
direction
speed
MPH
gust
MPH
rain 1hr
in
rain 24hr
in
rain mn
in
humidity
%
barometer
mb
20190322115431 43 153 2.0 2.0 0.00 0.05 0.02 68 1015.7
20190322114228 43 179 2.0 4.0 0.00 0.05 0.02 68 1015.6
20190322113025 43 149 2.0 3.0 0.00 0.05 0.02 70 1015.6
20190322111822 43 133 2.0 5.0 0.00 0.05 0.02 70 1015.5
20190322110620 42 144 2.0 3.0 0.00 0.05 0.02 71 1015.4
20190322105416 42 0.0 0.0 0.00 0.05 0.02 72 1015.4
20190322104232 42 0.0 0.0 0.00 0.05 0.02 74 1015.5
20190322103029 42 0.0 0.0 0.00 0.05 0.02 74 1015.4
20190322101827 42 168 1.0 2.0 0.00 0.05 0.02 74 1015.4
20190322100624 42 0.0 0.0 0.00 0.05 0.02 74 1015.4
20190322095421 42 0.0 0.0 0.00 0.05 0.02 75 1015.5
20190322094218 42 106 2.0 4.0 0.00 0.05 0.02 75 1015.6
20190322093016 42 112 1.0 3.0 0.00 0.05 0.02 77 1015.8
20190322091825 42 131 2.0 3.0 0.00 0.05 0.02 77 1015.8
20190322090622 41 0.0 0.0 0.00 0.05 0.02 84 1015.8
20190322085419 42 0.0 0.0 0.00 0.05 0.02 83 1016.0
20190322084217 42 0.0 0.0 0.00 0.05 0.02 83 1016.0
20190322083020 42 0.0 0.0 0.00 0.05 0.02 83 1016.0
20190322081817 42 0.0 0.0 0.00 0.05 0.02 83 1016.0
20190322080615 42 0.0 0.0 0.01 0.05 0.02 84 1016.0
20190322075430 42 0.0 0.0 0.01 0.05 0.02 83 1016.0
20190322074227 42 0.0 0.0 0.01 0.05 0.02 80 1016.0
20190322073024 42 159 3.0 4.0 0.01 0.05 0.02 82 1016.0
20190322071822 42 0.0 0.0 0.02 0.05 0.02 84 1016.0
20190322070619 42 0.0 0.0 0.01 0.04 0.01 85 1016.0
20190322065416 42 0.0 0.0 0.01 0.04 0.01 84 1016.0
20190322064232 42 0.0 0.0 0.01 0.04 0.01 83 1016.2
20190322063029 43 0.0 0.0 0.01 0.04 0.01 82 1016.2
20190322061826 43 0.0 0.0 0.00 0.03 0.00 82 1016.3
20190322060623 43 0.0 0.0 0.01 0.03 0.00 82 1016.3
20190322055421 43 0.0 0.0 0.01 0.03 0.03 84 1016.3
20190322054218 43 0.0 0.0 0.02 0.02 0.02 84 1016.2
20190322053015 43 0.0 0.0 0.02 0.02 0.02 82 1016.3
20190322051830 44 0.0 0.0 0.02 0.02 0.02 81 1016.3
20190322050628 44 107 0.0 2.0 0.01 0.01 0.01 79 1016.4
20190322045425 45 0.0 1.0 0.01 0.01 0.01 82 1016.3
20190322044222 45 0.0 0.0 0.00 0.00 0.00 79 1016.0
20190322043020 46 0.0 0.0 0.00 0.00 0.00 76 1016.0
20190322041817 46 0.0 0.0 0.00 0.00 0.00 72 1016.0
20190322040632 47 112 0.0 1.0 0.00 0.00 0.00 68 1015.8
20190322035429 47 202 0.0 3.0 0.00 0.00 0.00 67 1015.7
20190322034227 47 135 0.0 1.0 0.00 0.00 0.00 69 1015.6
20190322033024 47 0.0 1.0 0.00 0.00 0.00 70 1015.5
20190322031821 47 0.0 0.0 0.00 0.00 0.00 69 1015.2
20190322030618 48 112 1.0 2.0 0.00 0.00 0.00 68 1015.2
20190322025415 49 214 4.0 4.0 0.00 0.00 0.00 62 1014.7
20190322024230 50 183 3.0 4.0 0.00 0.00 0.00 60 1014.1
20190322023028 51 262 1.0 3.0 0.00 0.00 0.00 56 1013.8
20190322021825 52 107 1.0 3.0 0.00 0.00 0.00 45 1013.5
20190322020622 52 109 5.0 7.0 0.00 0.00 0.00 44 1013.5
20190322015420 52 93 4.0 7.0 0.00 0.00 0.00 44 1013.3
20190322014217 52 116 6.0 9.0 0.00 0.00 0.00 45 1013.3
20190322013032 53 157 4.0 7.0 0.00 0.00 0.00 43 1013.3
20190322011829 53 153 4.0 8.0 0.00 0.00 0.00 43 1013.0
20190322010627 54 213 1.0 2.0 0.00 0.00 0.00 48 1012.9
20190322005424 54 125 3.0 14.0 0.00 0.00 0.00 42 1012.8
20190322004221 55 166 3.0 4.0 0.00 0.00 0.00 45 1012.6
20190322003018 58 265 2.0 3.0 0.00 0.00 0.00 45 1012.8
20190322001816 56 284 4.0 6.0 0.00 0.00 0.00 49 1012.9
20190322000620 56 256 3.0 6.0 0.00 0.00 0.00 49 1012.9
20190321235417 55 222 3.0 3.0 0.00 0.00 0.00 50 1012.8
20190321234226 55 230 3.0 6.0 0.00 0.00 0.00 50 1012.9
20190321233023 56 252 3.0 4.0 0.00 0.00 0.00 52 1012.9
20190321231821 56 198 3.0 4.0 0.00 0.00 0.00 51 1013.1
20190321230618 57 237 3.0 6.0 0.00 0.00 0.00 52 1013.2
20190321225415 55 226 2.0 4.0 0.00 0.00 0.00 52 1013.5
20190321224231 55 219 2.0 3.0 0.00 0.00 0.00 53 1013.5
20190321223028 53 299 1.0 4.0 0.00 0.00 0.00 52 1013.7
20190321221825 54 261 2.0 4.0 0.00 0.00 0.00 52 1013.8
20190321220622 55 256 3.0 4.0 0.00 0.00 0.00 51 1013.9
20190321215420 55 307 3.0 4.0 0.00 0.00 0.00 52 1014.0
20190321214217 55 245 2.0 3.0 0.00 0.00 0.00 51 1014.1
20190321213032 55 287 2.0 3.0 0.00 0.00 0.00 50 1013.9
20190321211830 55 300 3.0 5.0 0.00 0.00 0.00 52 1014.1
20190321210627 53 241 3.0 4.0 0.00 0.00 0.00 52 1014.3
20190321205424 52 282 3.0 6.0 0.00 0.00 0.00 55 1014.7
20190321204222 52 292 3.0 5.0 0.00 0.00 0.00 58 1014.9
20190321203019 50 256 2.0 5.0 0.00 0.00 0.00 60 1015.2
20190321201816 50 212 3.0 4.0 0.00 0.00 0.00 60 1015.4
20190321200625 49 237 5.0 7.0 0.00 0.00 0.00 62 1015.6
20190321195423 49 341 4.0 6.0 0.00 0.00 0.00 64 1015.8
20190321194220 49 266 5.0 7.0 0.00 0.00 0.00 62 1015.6
20190321193017 51 193 5.0 8.0 0.00 0.00 0.00 58 1015.4
20190321191814 52 335 3.0 5.0 0.00 0.00 0.00 54 1015.0
20190321190618 54 76 6.0 10.0 0.00 0.00 0.00 41 1014.6
20190321185415 54 102 8.0 12.0 0.00 0.00 0.00 42 1014.3
20190321184230 53 100 10.0 15.0 0.00 0.00 0.00 45 1014.5
20190321183027 51 78 12.0 20.0 0.00 0.00 0.00 50 1014.8
20190321181825 51 102 10.0 19.0 0.00 0.00 0.00 51 1015.6
20190321180622 47 1 5.0 7.0 0.00 0.00 0.00 56 1015.8
20190321175419 45 0.0 0.0 0.00 0.00 0.00 57 1016.6
20190321174217 45 297 4.0 5.0 0.00 0.00 0.00 60 1017.3
20190321173032 44 296 5.0 9.0 0.00 0.00 0.00 66 1017.7
20190321171830 43 293 3.0 6.0 0.00 0.00 0.00 70 1018.2
20190321170627 44 270 4.0 6.0 0.00 0.00 0.00 64 1018.1
20190321165424 44 313 5.0 8.0 0.00 0.00 0.00 62 1018.2
20190321164221 44 24 2.0 4.0 0.00 0.00 0.00 61 1018.0
20190321163018 44 319 0.0 2.0 0.00 0.00 0.00 62 1018.1
20190321161816 44 163 4.0 7.0 0.00 0.00 0.00 60 1018.2
20190321160631 45 98 5.0 7.0 0.00 0.00 0.00 55 1018.0
20190321155428 46 209 3.0 5.0 0.00 0.00 0.00 54 1017.5
20190321154226 46 250 5.0 9.0 0.00 0.00 0.00 51 1017.5
20190321153023 45 173 3.0 4.0 0.00 0.00 0.00 56 1017.4
20190321151821 45 108 8.0 13.0 0.00 0.00 0.00 60 1017.3
20190321150618 45 42 3.0 6.0 0.00 0.00 0.00 69 1017.5
20190321145415 45 320 4.0 5.0 0.00 0.00 0.00 63 1017.7
20190321144231 45 0.0 0.0 0.00 0.00 0.00 56 1017.7
20190321143028 45 96 4.0 7.0 0.00 0.00 0.00 42 1017.7
20190321141825 46 137 4.0 7.0 0.00 0.00 0.00 46 1017.7
20190321140622 46 186 4.0 5.0 0.00 0.00 0.00 51 1018.2
20190321135420 47 113 6.0 7.0 0.00 0.00 0.00 52 1018.2
20190321134217 49 182 6.0 13.0 0.00 0.00 0.00 39 1018.1
20190321133032 50 45 7.0 9.0 0.00 0.00 0.00 37 1017.9
20190321131829 49 235 3.0 5.0 0.00 0.00 0.00 36 1017.3
20190321130627 51 189 6.0 8.0 0.00 0.00 0.00 38 1016.9
20190321125424 53 122 6.0 10.0 0.00 0.00 0.00 36 1016.6
20190321124221 54 136 4.0 5.0 0.00 0.00 0.00 35 1016.0
20190321123018 54 140 6.0 10.0 0.00 0.00 0.00 35 1016.0
20190321121815 54 72 12.0 17.0 0.00 0.00 0.00 31 1016.0
20190321120631 54 92 18.0 25.0 0.00 0.00 0.00 31 1015.6